createdAt,value
2023-03-12T00:00:34.254Z,5.20
2023-03-12T00:06:37.591Z,5.10
2023-03-12T00:12:40.569Z,5.10
2023-03-12T00:18:42.905Z,5.10
2023-03-12T00:24:45.149Z,4.90
2023-03-12T00:30:47.507Z,4.80
2023-03-12T00:36:49.697Z,4.80
2023-03-12T00:42:52.066Z,4.70
2023-03-12T00:48:54.147Z,4.60
2023-03-12T00:54:59.229Z,4.60
2023-03-12T01:01:02.879Z,4.50
2023-03-12T01:07:05.507Z,4.40
2023-03-12T01:13:07.742Z,4.30
2023-03-12T01:19:10.050Z,4.20
2023-03-12T01:25:12.513Z,4.10
2023-03-12T01:31:19.230Z,4.10
2023-03-12T01:37:21.644Z,4.00
2023-03-12T01:43:25.083Z,4.00
2023-03-12T01:49:32.352Z,3.90
2023-03-12T01:55:35.427Z,3.80
2023-03-12T02:01:38.921Z,3.80
2023-03-12T02:07:41.926Z,3.80
2023-03-12T02:13:45.092Z,3.80
2023-03-12T02:19:59.243Z,3.70
2023-03-12T02:26:03.930Z,3.60
2023-03-12T02:32:08.406Z,3.60
2023-03-12T02:38:40.422Z,3.60
2023-03-12T02:44:44.114Z,3.60
2023-03-12T02:50:46.757Z,3.50
2023-03-12T02:56:49.801Z,3.40
2023-03-12T03:02:52.735Z,3.40
2023-03-12T03:08:55.559Z,3.40
2023-03-12T03:14:58.337Z,3.40
2023-03-12T03:21:02.255Z,3.30
2023-03-12T03:27:06.738Z,3.40
2023-03-12T03:33:08.944Z,3.30
2023-03-12T03:39:10.970Z,3.30
2023-03-12T03:45:13.429Z,3.30
2023-03-12T03:51:18.750Z,3.40
2023-03-12T03:57:24.976Z,3.50
2023-03-12T04:03:27.723Z,3.70
2023-03-12T04:09:31.072Z,3.80
2023-03-12T04:15:33.561Z,3.80
2023-03-12T04:21:35.914Z,3.70
2023-03-12T04:27:38.240Z,3.60
2023-03-12T04:33:41.130Z,3.50
2023-03-12T04:39:45.646Z,3.50
2023-03-12T04:45:50.252Z,3.60
2023-03-12T04:51:52.689Z,3.60
2023-03-12T04:57:55.866Z,3.50
2023-03-12T05:03:59.894Z,3.80
2023-03-12T05:10:02.399Z,7.70
2023-03-12T05:16:05.655Z,10.00
2023-03-12T05:22:07.733Z,12.00
2023-03-12T05:28:10.503Z,14.50
2023-03-12T05:34:14.300Z,15.90
2023-03-12T05:40:18.826Z,16.20
2023-03-12T05:46:21.428Z,17.70
2023-03-12T05:52:24.178Z,17.50
2023-03-12T05:58:26.254Z,16.70
2023-03-12T06:04:30.111Z,18.00
2023-03-12T06:10:32.489Z,20.30
2023-03-12T06:16:34.818Z,21.30
2023-03-12T06:22:38.113Z,22.00
2023-03-12T06:28:41.229Z,22.40
2023-03-12T06:34:43.428Z,24.10
2023-03-12T06:40:54.539Z,19.40
2023-03-12T06:46:57.652Z,17.50
2023-03-12T06:52:59.868Z,16.10
2023-03-12T06:59:02.191Z,12.60
2023-03-12T07:05:04.886Z,11.70
2023-03-12T07:11:07.097Z,10.70
2023-03-12T07:17:09.311Z,10.60
2023-03-12T07:23:15.403Z,10.20
2023-03-12T07:29:17.887Z,10.10
2023-03-12T07:35:20.482Z,9.90
2023-03-12T07:41:22.847Z,9.70
2023-03-12T07:47:25.463Z,9.40
2023-03-12T07:53:27.649Z,9.40
2023-03-12T07:59:30.110Z,9.50
2023-03-12T08:05:32.609Z,9.20
2023-03-12T08:11:35.068Z,9.20
2023-03-12T08:17:37.817Z,8.90
2023-03-12T08:23:40.120Z,9.00
2023-03-12T08:29:42.595Z,9.00
2023-03-12T08:35:45.138Z,9.00
2023-03-12T08:41:48.155Z,8.60
2023-03-12T08:47:50.596Z,9.20
2023-03-12T08:53:53.104Z,9.50
2023-03-12T08:59:55.266Z,9.60
2023-03-12T09:06:13.479Z,9.90
2023-03-12T09:12:16.308Z,10.70
2023-03-12T09:18:20.443Z,9.80
2023-03-12T09:24:22.689Z,9.50
2023-03-12T09:30:27.317Z,9.70
2023-03-12T09:36:29.843Z,9.70
2023-03-12T09:43:21.341Z,10.10
2023-03-12T09:49:57.203Z,10.10
2023-03-12T09:56:02.864Z,10.10
2023-03-12T10:02:22.639Z,9.80
2023-03-12T10:08:31.266Z,9.80
2023-03-12T10:14:53.135Z,10.00
2023-03-12T10:21:22.520Z,10.50
2023-03-12T10:27:28.997Z,10.30
2023-03-12T10:34:00.021Z,10.60
2023-03-12T10:40:02.725Z,10.10
2023-03-12T10:46:28.876Z,10.00
2023-03-12T10:52:30.986Z,10.30
2023-03-12T10:58:34.398Z,10.80
2023-03-12T11:04:37.817Z,11.10
2023-03-12T11:10:45.516Z,11.10
2023-03-12T11:16:47.961Z,11.70
2023-03-12T11:22:51.562Z,11.70
2023-03-12T11:29:25.894Z,11.10
2023-03-12T11:35:48.405Z,11.10
2023-03-12T11:42:10.346Z,12.80
2023-03-12T11:48:50.227Z,12.60
2023-03-12T11:55:16.397Z,12.70
2023-03-12T12:01:24.871Z,13.50
2023-03-12T12:07:39.782Z,19.40
2023-03-12T12:14:07.663Z,20.70
2023-03-12T12:20:22.530Z,20.60
2023-03-12T12:26:59.334Z,21.60
2023-03-12T12:33:41.534Z,19.90
2023-03-12T12:39:54.347Z,16.70
2023-03-12T12:46:04.164Z,17.80
2023-03-12T12:52:09.414Z,16.20
2023-03-12T12:58:23.581Z,15.80
2023-03-12T13:04:38.183Z,17.50
2023-03-12T13:10:48.954Z,16.00
2023-03-12T13:17:26.009Z,14.50
2023-03-12T13:24:11.565Z,16.00
2023-03-12T13:30:35.141Z,16.70
2023-03-12T13:36:38.124Z,18.00
2023-03-12T13:42:42.207Z,17.90
2023-03-12T13:48:46.570Z,15.60
2023-03-12T13:55:00.120Z,15.00
2023-03-12T14:01:06.242Z,14.70
2023-03-12T14:07:26.986Z,13.70
2023-03-12T14:13:45.308Z,12.80
2023-03-12T14:19:51.946Z,12.40
2023-03-12T14:26:03.878Z,12.00
2023-03-12T14:32:15.143Z,11.70
2023-03-12T14:38:33.053Z,11.40
2023-03-12T14:44:37.905Z,11.20
2023-03-12T14:50:41.279Z,11.10
2023-03-12T14:56:44.608Z,11.10
2023-03-12T15:02:47.066Z,11.20
2023-03-12T15:08:49.826Z,11.30
2023-03-12T15:15:00.671Z,10.90
2023-03-12T15:21:03.604Z,10.70
2023-03-12T15:27:38.009Z,10.50
2023-03-12T15:33:42.090Z,10.40
2023-03-12T15:39:50.218Z,10.20
2023-03-12T15:46:04.049Z,10.00
2023-03-12T15:52:25.146Z,9.90
2023-03-12T15:58:32.061Z,9.70
2023-03-12T16:04:34.310Z,9.60
2023-03-12T16:10:38.091Z,9.40
2023-03-12T16:16:40.465Z,9.30
2023-03-12T16:22:42.808Z,9.10
2023-03-12T16:28:45.554Z,9.00
2023-03-12T16:34:48.575Z,8.90
2023-03-12T16:40:52.484Z,8.80
2023-03-12T16:46:55.574Z,8.70
2023-03-12T16:52:58.502Z,8.50
2023-03-12T16:59:02.453Z,8.50
2023-03-12T17:05:04.922Z,8.40
2023-03-12T17:11:34.011Z,8.40
2023-03-12T17:17:36.654Z,8.20
2023-03-12T17:23:39.460Z,8.10
2023-03-12T17:29:41.417Z,8.00
2023-03-12T17:35:43.864Z,7.90
2023-03-12T17:41:46.223Z,7.90
2023-03-12T17:47:48.705Z,7.80
2023-03-12T17:53:51.082Z,7.60
2023-03-12T17:59:53.322Z,7.60
2023-03-12T18:05:55.899Z,7.60
2023-03-12T18:11:58.221Z,7.40
2023-03-12T18:18:01.571Z,7.30
2023-03-12T18:24:13.424Z,7.40
2023-03-12T18:30:18.962Z,7.50
2023-03-12T18:36:21.369Z,7.50
2023-03-12T18:42:24.035Z,7.40
2023-03-12T18:48:26.359Z,7.20
2023-03-12T18:54:28.760Z,7.10
2023-03-12T19:00:30.878Z,7.10
2023-03-12T19:06:47.732Z,7.20
2023-03-12T19:12:54.095Z,7.60
2023-03-12T19:18:57.020Z,7.70
2023-03-12T19:24:59.334Z,7.80
2023-03-12T19:31:03.434Z,7.90
2023-03-12T19:37:05.854Z,8.00
2023-03-12T19:43:08.371Z,8.10
2023-03-12T19:49:10.627Z,8.20
2023-03-12T19:55:13.114Z,8.20
2023-03-12T20:01:15.379Z,8.20
2023-03-12T20:07:18.639Z,8.30
2023-03-12T20:13:21.074Z,8.30
2023-03-12T20:19:23.432Z,8.20
2023-03-12T20:25:25.645Z,8.20
2023-03-12T20:31:27.973Z,8.20
2023-03-12T20:37:30.322Z,8.10
2023-03-12T20:43:32.391Z,8.00
2023-03-12T20:49:34.862Z,8.00
2023-03-12T20:55:40.251Z,7.90
2023-03-12T21:01:42.760Z,7.90
2023-03-12T21:07:45.025Z,8.00
2023-03-12T21:13:47.323Z,8.00
2023-03-12T21:19:49.976Z,8.00
2023-03-12T21:25:57.333Z,8.00
2023-03-12T21:31:59.762Z,8.10
2023-03-12T21:38:02.854Z,8.00
2023-03-12T21:44:05.034Z,8.00
2023-03-12T21:50:08.707Z,8.00
2023-03-12T21:56:11.306Z,7.90
2023-03-12T22:02:14.882Z,7.70
2023-03-12T22:08:17.165Z,7.60
2023-03-12T22:14:19.621Z,7.30
2023-03-12T22:20:21.854Z,7.10
2023-03-12T22:26:25.995Z,6.90
2023-03-12T22:32:28.464Z,6.70
2023-03-12T22:38:30.626Z,6.50
2023-03-12T22:44:32.900Z,6.30
2023-03-12T22:50:35.104Z,6.10
2023-03-12T22:56:37.653Z,6.00
2023-03-12T23:02:40.668Z,5.90
2023-03-12T23:08:43.903Z,5.60
2023-03-12T23:14:46.976Z,5.40
2023-03-12T23:20:58.184Z,5.50
2023-03-12T23:27:00.638Z,5.30
2023-03-12T23:33:02.983Z,5.30
2023-03-12T23:39:06.027Z,5.30
2023-03-12T23:45:08.821Z,5.20
2023-03-12T23:51:20.018Z,5.10
2023-03-12T23:57:22.457Z,5.00
